Time;durP1;ratioP1;P1;durP2;ratioP2;P2;SDS_P1;SDS_P2;PMS_P1;PMS_P2;Temp;Humidity;BMP_temperature;BMP_pressure;BME280_temperature;BME280_humidity;BME280_pressure;Samples;Min_cycle;Max_cycle;Signal;HPM_P1;HPM_P2
2022/02/10 00:06:20;;;;;;;4.47;1.30;;;;;;;11.94;65.67;101179.47;4975960;28;20189;-85
2022/02/10 00:13:28;;;;;;;3.88;1.75;;;;;;;11.94;65.65;101186.53;4975710;28;20073;-86
2022/02/10 00:22:29;;;;;;;3.42;1.00;;;;;;;11.62;65.72;101178.78;4975228;28;20055;-86
2022/02/10 00:36:05;;;;;;;6.10;1.30;;;;;;;11.32;65.18;101166.53;4975190;28;20038;-85
2022/02/10 00:38:29;;;;;;;3.33;0.98;;;;;;;11.30;65.57;101160.50;4974669;28;20047;-85
2022/02/10 00:40:55;;;;;;;1.90;1.08;;;;;;;11.24;65.59;101174.84;4973376;28;20039;-85
2022/02/10 00:43:20;;;;;;;2.55;1.13;;;;;;;11.22;65.71;101170.63;4974876;28;20031;-85
2022/02/10 00:45:47;;;;;;;4.30;1.45;;;;;;;11.17;65.97;101172.69;4974930;28;20384;-85
2022/02/10 00:48:13;;;;;;;4.95;1.85;;;;;;;11.20;66.13;101167.25;4974546;28;20030;-85
2022/02/10 00:50:41;;;;;;;8.18;2.00;;;;;;;11.06;66.30;101157.53;4974702;28;20038;-85
2022/02/10 00:53:23;;;;;;;6.00;1.92;;;;;;;11.06;66.63;101160.16;4974905;28;20073;-86
2022/02/10 00:55:48;;;;;;;3.15;1.45;;;;;;;11.09;66.28;101154.72;4974623;28;20023;-85
2022/02/10 00:58:29;;;;;;;4.30;1.85;;;;;;;11.17;66.63;101156.91;4974467;28;20488;-85
2022/02/10 01:30:29;;;;;;;3.95;1.42;;;;;;;11.16;66.60;101158.69;4974286;28;20029;-86
2022/02/10 01:32:58;;;;;;;3.97;1.65;;;;;;;11.15;66.53;101158.78;4973744;28;20031;-86
2022/02/10 01:35:25;;;;;;;2.92;1.20;;;;;;;11.12;66.67;101165.06;4973550;28;20037;-86
2022/02/10 01:37:51;;;;;;;4.43;1.50;;;;;;;11.18;66.53;101159.44;4973532;28;20039;-86
2022/02/10 02:04:55;;;;;;;5.50;2.05;;;;;;;10.89;65.96;101155.88;4973609;28;20555;-86
2022/02/10 02:07:27;;;;;;;3.28;1.10;;;;;;;10.93;65.61;101164.44;4973377;28;20055;-86
2022/02/10 02:09:53;;;;;;;9.20;1.98;;;;;;;10.74;65.79;101162.00;4973573;28;20026;-86
2022/02/10 02:12:19;;;;;;;4.07;1.77;;;;;;;10.62;65.51;101151.25;4973294;28;20050;-86
2022/02/10 02:14:44;;;;;;;5.32;1.40;;;;;;;10.70;65.59;101156.94;4973450;28;20026;-86
2022/02/10 02:17:10;;;;;;;2.13;1.10;;;;;;;10.64;65.67;101165.16;4972982;28;20117;-86
2022/02/10 02:19:35;;;;;;;3.05;1.13;;;;;;;10.64;66.43;101148.53;4972999;28;20203;-86
2022/02/10 02:22:05;;;;;;;2.28;1.20;;;;;;;10.64;66.13;101148.53;4975194;28;20030;-86
2022/02/10 02:24:31;;;;;;;2.97;1.50;;;;;;;10.64;66.23;101154.66;4979583;28;20499;-86
2022/02/10 02:27:00;;;;;;;5.97;2.20;;;;;;;10.68;66.20;101143.03;4979751;28;20042;-86
2022/02/10 02:29:56;;;;;;;5.63;1.77;;;;;;;10.71;66.47;101145.47;4979274;28;20034;-85
2022/02/10 02:32:21;;;;;;;5.20;1.60;;;;;;;10.71;66.28;101150.72;4979184;28;20031;-86
2022/02/10 02:37:56;;;;;;;4.97;2.30;;;;;;;10.79;66.60;101147.66;4978983;28;20654;-85
2022/02/10 03:05:05;;;;;;;5.10;1.60;;;;;;;10.52;66.05;101129.94;4979099;28;20037;-85
2022/02/10 03:07:52;;;;;;;4.65;1.73;;;;;;;10.40;66.58;101129.75;4978894;28;20031;-85
2022/02/10 03:10:42;;;;;;;5.72;1.50;;;;;;;10.51;65.95;101132.63;4979222;28;20081;-85
2022/02/10 03:13:03;;;;;;;7.25;1.70;;;;;;;10.23;66.99;101128.88;4979088;28;20035;-85
2022/02/10 03:15:37;;;;;;;5.68;1.88;;;;;;;10.47;66.36;101123.25;4979112;28;20074;-85
2022/02/10 03:18:21;;;;;;;3.58;1.80;;;;;;;10.48;66.08;101124.91;4979172;28;20412;-85
2022/02/10 04:20:21;;;;;;;5.28;2.38;;;;;;;9.98;68.03;101155.59;4955684;28;20041;-86
2022/02/10 04:42:45;;;;;;;5.88;2.22;;;;;;;9.79;69.10;101160.97;4964972;28;20094;-85
2022/02/10 04:44:31;;;;;;;4.13;1.80;;;;;;;9.82;69.07;101152.09;4954998;28;20035;-85
2022/02/10 05:23:30;;;;;;;13.98;2.13;;;;;;;10.00;68.13;101164.22;4963765;28;20066;-85
2022/02/10 05:34:09;;;;;;;9.40;2.40;;;;;;;9.96;68.11;101174.97;4964864;28;20042;-85
2022/02/10 05:36:37;;;;;;;10.20;2.80;;;;;;;9.85;68.66;101189.53;4958256;28;20023;-85
2022/02/10 05:39:12;;;;;;;7.65;2.42;;;;;;;9.91;68.39;101191.81;4968564;28;20081;-85
2022/02/10 05:49:48;;;;;;;8.65;2.35;;;;;;;10.00;67.70;101185.22;4959555;28;20069;-85
2022/02/10 05:54:51;;;;;;;11.23;2.22;;;;;;;10.06;67.88;101194.53;4959483;28;20036;-85
2022/02/10 06:01:00;;;;;;;7.18;2.25;;;;;;;10.08;67.24;101198.78;4956000;28;20046;-85
2022/02/10 06:50:12;;;;;;;8.55;2.70;;;;;;;9.68;65.55;101200.03;4973389;28;20045;-85
2022/02/10 06:57:49;;;;;;;4.20;1.45;;;;;;;9.70;65.87;101212.13;4973793;28;20093;-85
2022/02/10 07:48:37;;;;;;;8.50;1.73;;;;;;;9.26;66.77;101256.28;4975074;28;20448;-87
2022/02/10 07:51:51;;;;;;;13.80;1.85;;;;;;;9.21;66.34;101263.53;4973243;28;20154;-86
2022/02/10 08:55:31;;;;;;;8.55;1.70;;;;;;;10.26;63.33;101343.94;4974508;28;20030;-86
2022/02/10 09:57:18;;;;;;;4.43;1.17;;;;;;;12.61;56.06;101358.81;4967648;28;20085;-83
2022/02/10 10:02:20;;;;;;;7.15;1.23;;;;;;;12.87;55.24;101364.28;4973785;28;20065;-84
2022/02/10 10:04:55;;;;;;;3.88;1.25;;;;;;;12.67;55.11;101363.72;4973747;28;20121;-84
2022/02/10 10:10:43;;;;;;;6.22;1.33;;;;;;;13.39;53.61;101360.16;4973054;28;20389;-84
2022/02/10 10:50:33;;;;;;;7.72;1.73;;;;;;;14.53;48.42;101378.97;4976704;28;20092;-84
2022/02/10 10:53:19;;;;;;;10.93;1.92;;;;;;;14.45;48.22;101382.16;4976731;28;20122;-84
2022/02/10 10:58:18;;;;;;;6.20;1.67;;;;;;;14.06;48.53;101378.63;4976425;28;20397;-84
2022/02/10 11:03:42;;;;;;;7.57;1.17;;;;;;;13.79;48.36;101398.00;4976562;28;20026;-84
2022/02/10 11:37:32;;;;;;;10.88;2.08;;;;;;;12.50;49.43;101391.09;4976081;28;20057;-84
2022/02/10 11:40:17;;;;;;;9.95;1.33;;;;;;;12.90;49.65;101395.72;4975611;28;20102;-84
2022/02/10 11:43:06;;;;;;;12.23;1.90;;;;;;;12.74;48.97;101385.28;4975886;28;20039;-84
2022/02/10 14:16:04;;;;;;;12.30;1.88;;;;;;;14.37;43.47;101300.75;4953899;28;20488;-85
2022/02/10 14:18:31;;;;;;;4.60;1.00;;;;;;;14.58;42.67;101306.38;4952892;28;20031;-84
2022/02/10 14:26:12;;;;;;;9.45;1.30;;;;;;;13.94;43.05;101308.16;4972750;28;20393;-84
2022/02/10 14:28:38;;;;;;;8.70;1.50;;;;;;;14.12;42.95;101314.84;4972973;28;20027;-85
2022/02/10 14:31:04;;;;;;;8.38;1.45;;;;;;;14.10;43.03;101319.38;4972160;28;20440;-84
2022/02/10 14:33:33;;;;;;;5.57;1.25;;;;;;;14.14;43.30;101315.59;4972668;28;20110;-85
2022/02/10 16:18:22;;;;;;;6.53;1.80;;;;;;;11.67;50.05;101334.53;4975714;28;20105;-84
2022/02/10 16:20:58;;;;;;;8.60;1.55;;;;;;;11.57;50.09;101336.88;4975207;28;20031;-84
2022/02/10 16:23:25;;;;;;;8.73;1.60;;;;;;;11.31;50.47;101348.84;4975080;28;20031;-84
2022/02/10 16:26:08;;;;;;;5.97;2.25;;;;;;;11.39;50.53;101341.38;4975198;28;20026;-84
2022/02/10 16:28:35;;;;;;;5.15;1.23;;;;;;;11.16;50.73;101345.31;4974699;28;20105;-84
2022/02/10 16:31:01;;;;;;;9.40;1.92;;;;;;;11.21;50.84;101342.41;4974423;28;20030;-84
2022/02/10 16:33:27;;;;;;;12.30;1.65;;;;;;;10.97;51.86;101349.88;4974507;28;20031;-84
2022/02/10 16:35:53;;;;;;;11.07;1.48;;;;;;;11.00;51.84;101354.97;4974511;28;20023;-84
2022/02/10 16:38:19;;;;;;;5.97;1.70;;;;;;;11.01;51.83;101352.25;4974552;28;20039;-84
2022/02/10 16:40:44;;;;;;;6.93;1.20;;;;;;;10.82;52.48;101365.56;4973898;28;20490;-84
2022/02/10 16:43:10;;;;;;;9.02;1.40;;;;;;;10.88;52.52;101354.72;4975066;28;20039;-84
2022/02/10 16:45:36;;;;;;;7.93;1.35;;;;;;;11.00;53.00;101355.81;4974726;28;20026;-84
2022/02/10 16:48:01;;;;;;;10.82;1.80;;;;;;;11.02;52.70;101347.84;4975340;28;20058;-84
2022/02/10 16:50:27;;;;;;;5.82;2.00;;;;;;;11.08;52.79;101351.00;4974989;28;20033;-84
2022/02/10 16:53:07;;;;;;;11.82;1.73;;;;;;;11.07;53.05;101362.41;4975209;28;20023;-84
2022/02/10 16:55:42;;;;;;;4.88;1.33;;;;;;;11.14;53.15;101367.34;4973406;28;20162;-85
2022/02/10 17:27:28;;;;;;;6.22;1.42;;;;;;;10.50;53.50;101402.25;4956512;28;20067;-85
2022/02/10 17:32:43;;;;;;;5.15;1.27;;;;;;;10.39;53.53;101408.97;4966882;28;20065;-85
2022/02/10 17:35:20;;;;;;;12.55;1.63;;;;;;;10.34;53.89;101418.84;4973717;28;20054;-85
2022/02/10 17:46:14;;;;;;;5.35;1.40;;;;;;;10.00;53.81;101441.50;4961017;28;20503;-84
2022/02/10 17:53:58;;;;;;;6.88;1.55;;;;;;;9.79;53.48;101446.84;4958049;28;20038;-85
2022/02/10 17:56:25;;;;;;;11.07;1.98;;;;;;;9.86;53.14;101448.25;4969206;28;20035;-84
2022/02/10 17:58:50;;;;;;;8.30;2.67;;;;;;;9.78;52.80;101449.56;4972886;28;20500;-87
2022/02/10 18:01:16;;;;;;;10.43;1.80;;;;;;;9.87;52.09;101456.97;4972525;28;20038;-84
2022/02/10 18:03:41;;;;;;;11.40;1.45;;;;;;;9.79;51.49;101457.34;4972385;28;20103;-83
2022/02/10 18:08:46;;;;;;;11.02;1.85;;;;;;;9.79;50.35;101459.13;4972165;28;20446;-84
2022/02/10 18:16:27;;;;;;;9.05;1.50;;;;;;;9.83;50.31;101458.03;4972564;28;20101;-86
2022/02/10 18:18:58;;;;;;;;;;;;;;;9.77;50.59;101472.28;4970456;28;20461;-85
2022/02/10 18:22:04;;;;;;;8.50;1.15;;;;;;;9.74;50.87;101475.09;4967423;28;19919;-86
2022/02/10 18:30:01;;;;;;;8.60;1.38;;;;;;;9.67;50.95;101505.13;4971914;28;20137;-85
2022/02/10 19:10:05;;;;;;;10.77;1.45;;;;;;;8.85;53.08;101523.66;4976565;28;20101;-86
2022/02/10 19:12:41;;;;;;;6.82;1.40;;;;;;;8.73;52.62;101519.78;4967666;28;20114;-86
2022/02/10 19:15:14;;;;;;;6.97;1.67;;;;;;;8.68;53.04;101519.97;4973132;28;20066;-86
2022/02/10 19:17:40;;;;;;;8.95;2.13;;;;;;;8.76;52.82;101534.50;4965033;28;20432;-86
2022/02/10 19:20:06;;;;;;;5.43;1.65;;;;;;;8.70;53.10;101536.47;4975111;28;20023;-86
2022/02/10 19:22:32;;;;;;;7.95;1.42;;;;;;;8.53;54.01;101534.56;4972947;28;20018;-87
2022/02/10 19:24:57;;;;;;;8.10;1.95;;;;;;;8.69;53.14;101540.00;4975947;28;20027;-87
2022/02/10 19:27:22;;;;;;;10.75;2.13;;;;;;;8.69;53.90;101552.25;4974608;28;20034;-87
2022/02/10 19:29:55;;;;;;;10.65;2.08;;;;;;;8.63;54.10;101549.88;4973082;28;20284;-86
2022/02/10 19:32:21;;;;;;;7.70;2.20;;;;;;;8.62;54.67;101569.97;4974429;28;20026;-86
2022/02/10 19:34:47;;;;;;;7.55;2.10;;;;;;;8.62;54.10;101575.22;4975923;28;20058;-86
2022/02/10 19:37:15;;;;;;;7.80;1.73;;;;;;;8.49;54.75;101568.75;4977904;28;20109;-87
2022/02/10 19:39:43;;;;;;;7.32;1.77;;;;;;;8.59;54.63;101584.94;4977493;28;20027;-86
2022/02/10 19:42:08;;;;;;;11.15;1.85;;;;;;;8.64;54.54;101583.00;4977014;28;20423;-86
2022/02/10 19:44:34;;;;;;;9.55;2.42;;;;;;;8.57;54.78;101582.41;4976757;28;20027;-86
2022/02/10 19:47:03;;;;;;;8.70;2.05;;;;;;;8.54;55.28;101579.91;4973837;28;20030;-86
2022/02/10 19:49:29;;;;;;;5.63;1.88;;;;;;;8.67;54.32;101588.13;4973773;28;20030;-86
2022/02/10 19:51:55;;;;;;;9.18;2.03;;;;;;;8.62;54.63;101590.06;4961335;28;20122;-87
2022/02/10 19:54:27;;;;;;;11.10;1.60;;;;;;;8.53;54.73;101584.31;4974073;28;20070;-87
2022/02/10 19:56:55;;;;;;;8.15;1.75;;;;;;;8.55;54.72;101589.47;4974428;28;20588;-86
2022/02/10 19:59:25;;;;;;;10.93;2.67;;;;;;;8.55;55.28;101589.47;4969912;28;20039;-85
2022/02/10 20:01:52;;;;;;;11.23;2.30;;;;;;;8.48;55.14;101588.00;4974470;28;20057;-86
2022/02/10 20:04:20;;;;;;;11.43;2.47;;;;;;;8.50;55.21;101591.41;4974081;28;20481;-86
2022/02/10 20:06:45;;;;;;;13.60;2.10;;;;;;;8.49;55.32;101606.28;4973989;28;20034;-86
2022/02/10 20:09:11;;;;;;;12.23;2.38;;;;;;;8.48;55.26;101606.34;4973353;28;20374;-85
2022/02/10 20:11:37;;;;;;;9.02;2.08;;;;;;;8.41;55.12;101607.44;4974558;28;20465;-86
2022/02/10 20:14:03;;;;;;;5.90;2.13;;;;;;;8.38;55.23;101603.19;4974258;28;20057;-86
2022/02/10 20:16:28;;;;;;;10.07;2.80;;;;;;;8.32;55.78;101604.28;4972314;28;20062;-86
2022/02/10 20:18:54;;;;;;;5.68;2.55;;;;;;;8.25;55.76;101607.19;4975251;28;20090;-88
2022/02/10 20:21:20;;;;;;;14.38;3.40;;;;;;;8.09;55.74;101597.31;4969891;28;20437;-87
2022/02/10 20:23:46;;;;;;;9.73;2.83;;;;;;;8.10;55.79;101608.66;4972340;28;20035;-86
2022/02/10 20:26:13;;;;;;;6.65;2.30;;;;;;;8.06;56.17;101612.31;4973262;28;20038;-86
2022/02/10 20:28:40;;;;;;;7.22;2.33;;;;;;;8.00;55.89;101617.75;4975007;28;20433;-86
2022/02/10 20:31:08;;;;;;;7.28;2.15;;;;;;;7.88;56.81;101606.84;4973336;28;20069;-89
2022/02/10 20:33:33;;;;;;;9.15;2.15;;;;;;;7.93;56.56;101624.97;4974244;28;20027;-86
2022/02/10 20:36:02;;;;;;;11.38;2.60;;;;;;;7.89;57.04;101621.63;4975216;28;20400;-87
2022/02/10 20:38:29;;;;;;;11.63;3.05;;;;;;;7.86;57.25;101626.97;4974683;28;20058;-87
2022/02/10 20:41:01;;;;;;;10.85;2.72;;;;;;;7.81;56.76;101621.06;4973644;28;20031;-87
2022/02/10 20:43:27;;;;;;;;;;;;;;;7.79;56.92;101630.72;4957084;28;20027;-87
2022/02/10 20:45:57;;;;;;;11.25;2.10;;;;;;;7.72;57.40;101624.00;4970019;28;19928;-87
2022/02/10 20:48:23;;;;;;;10.70;2.42;;;;;;;7.65;57.01;101623.38;4958428;28;20038;-86
2022/02/10 20:50:54;;;;;;;13.15;2.33;;;;;;;7.73;57.81;101630.94;4955314;28;20027;-87
2022/02/10 20:53:20;;;;;;;10.02;2.15;;;;;;;7.78;57.53;101641.22;4970761;28;20105;-88
2022/02/10 20:55:46;;;;;;;10.13;2.22;;;;;;;7.74;57.22;101640.47;4974485;28;20023;-88
2022/02/10 20:58:11;;;;;;;13.07;2.67;;;;;;;7.84;56.77;101646.22;4959097;28;20053;-87
2022/02/10 21:00:36;;;;;;;12.05;3.13;;;;;;;7.94;57.51;101650.25;4961424;28;20030;-87
2022/02/10 21:03:02;;;;;;;8.30;2.40;;;;;;;8.00;57.00;101659.59;4973744;28;20441;-87
2022/02/10 21:08:03;;;;;;;7.88;3.00;;;;;;;7.89;56.54;101647.78;4962740;28;20027;-87
2022/02/10 21:10:29;;;;;;;7.45;2.35;;;;;;;7.70;56.94;101645.00;4954995;28;20038;-87
2022/02/10 21:12:54;;;;;;;10.55;2.35;;;;;;;7.74;57.09;101646.59;4957267;28;20039;-87
2022/02/10 21:15:27;;;;;;;11.25;2.60;;;;;;;7.73;57.55;101657.09;4960870;28;20046;-87
2022/02/10 21:17:57;;;;;;;9.90;2.75;;;;;;;7.57;57.18;101642.88;4969834;28;20066;-87
2022/02/10 21:20:25;;;;;;;10.35;2.65;;;;;;;7.53;58.16;101655.19;4972749;28;20031;-87
2022/02/10 21:23:00;;;;;;;10.07;2.05;;;;;;;7.54;58.18;101652.53;4973221;28;20038;-87
2022/02/10 21:25:32;;;;;;;9.60;2.35;;;;;;;7.48;57.73;101651.88;4974202;28;20464;-87
2022/02/10 21:27:57;;;;;;;;;;;;;;;7.10;58.81;101651.44;4972330;28;20378;-87
2022/02/10 21:30:23;;;;;;;9.88;2.13;;;;;;;7.03;59.41;101648.19;4974087;28;19938;-86
2022/02/10 21:32:54;;;;;;;8.30;1.88;;;;;;;7.42;58.56;101652.94;4971310;28;20086;-87
2022/02/10 21:37:48;;;;;;;10.25;2.35;;;;;;;7.54;59.28;101665.59;4964015;28;20130;-87
2022/02/10 22:18:13;;;;;;;13.18;3.10;;;;;;;7.73;59.00;101678.00;4964657;28;20046;-87
2022/02/10 22:20:31;;;;;;;9.40;2.67;;;;;;;7.80;58.57;101689.97;4962893;28;20114;-86
2022/02/10 22:23:14;;;;;;;12.68;2.50;;;;;;;7.59;58.65;101670.66;4972632;28;20105;-86
2022/02/10 22:25:40;;;;;;;17.92;2.85;;;;;;;7.18;60.17;101685.13;4973139;28;20023;-86
2022/02/10 22:28:21;;;;;;;12.48;2.80;;;;;;;6.94;61.00;101698.09;4961727;28;20039;-86
2022/02/10 22:30:53;;;;;;;11.05;2.33;;;;;;;6.91;61.04;101683.38;4953772;28;20031;-86
2022/02/10 22:36:04;;;;;;;13.10;2.83;;;;;;;7.09;60.72;101681.94;4972025;28;20085;-86
2022/02/10 22:38:29;;;;;;;12.48;3.47;;;;;;;7.18;60.95;101685.13;4972883;28;20149;-86
2022/02/10 22:43:20;;;;;;;9.20;2.45;;;;;;;7.31;60.17;101689.06;4958514;28;20370;-86
2022/02/10 22:45:46;;;;;;;16.45;2.50;;;;;;;7.22;60.37;101691.97;4957676;28;20051;-86
2022/02/10 22:48:11;;;;;;;8.40;2.60;;;;;;;7.01;60.70;101694.38;4973463;28;20034;-86
2022/02/10 22:50:37;;;;;;;13.55;2.22;;;;;;;6.95;61.46;101698.06;4976673;28;20027;-87
2022/02/10 22:53:02;;;;;;;13.85;2.28;;;;;;;7.07;60.63;101691.56;4976063;28;20058;-86
2022/02/10 22:55:28;;;;;;;14.25;2.30;;;;;;;6.95;61.39;101698.06;4976562;28;20029;-86
2022/02/10 22:57:54;;;;;;;13.23;2.08;;;;;;;6.83;61.86;101705.41;4976225;28;20041;-86
2022/02/10 23:00:31;;;;;;;12.43;2.55;;;;;;;6.83;61.77;101708.00;4976611;28;20027;-86
2022/02/10 23:02:57;;;;;;;16.45;2.83;;;;;;;6.88;61.75;101703.50;4976282;28;20440;-86
2022/02/10 23:05:23;;;;;;;22.35;2.90;;;;;;;7.12;61.29;101707.94;4976330;28;20040;-86
2022/02/10 23:07:57;;;;;;;10.50;2.50;;;;;;;7.15;60.77;101713.06;4975862;28;20045;-86
2022/02/10 23:13:08;;;;;;;6.40;2.40;;;;;;;7.16;60.57;101711.31;4976098;28;20097;-86
2022/02/10 23:15:37;;;;;;;13.73;2.45;;;;;;;7.10;61.34;101714.97;4976356;28;20481;-86
2022/02/10 23:18:06;;;;;;;13.75;2.08;;;;;;;7.03;61.22;101713.47;4963862;28;20067;-86
2022/02/10 23:20:31;;;;;;;12.73;3.15;;;;;;;7.07;60.40;101715.09;4975590;28;20031;-86
2022/02/10 23:22:57;;;;;;;11.60;2.55;;;;;;;6.93;60.75;101723.34;4975491;28;20507;-86
2022/02/10 23:25:24;;;;;;;13.15;3.70;;;;;;;6.98;61.32;101731.03;4976057;28;20106;-86
2022/02/10 23:27:51;;;;;;;15.85;2.90;;;;;;;7.02;61.46;101737.88;4959521;28;20036;-86
2022/02/10 23:30:18;;;;;;;17.83;2.70;;;;;;;7.04;61.02;101741.28;4972657;28;20069;-86
2022/02/10 23:32:44;;;;;;;14.77;4.13;;;;;;;7.05;60.61;101726.47;4974950;28;20081;-85
2022/02/10 23:35:25;;;;;;;7.40;3.00;;;;;;;7.05;61.34;101742.13;4973609;28;20027;-85
2022/02/10 23:37:51;;;;;;;14.50;2.63;;;;;;;7.07;61.45;101746.44;4970948;28;20496;-86
2022/02/10 23:40:16;;;;;;;12.13;2.08;;;;;;;7.08;60.93;101745.50;4975188;28;20077;-85
2022/02/10 23:42:42;;;;;;;12.10;2.45;;;;;;;7.07;60.78;101743.81;4975458;28;20354;-86
2022/02/10 23:45:16;;;;;;;8.40;2.17;;;;;;;7.00;61.59;101751.88;4974883;28;20073;-85
2022/02/10 23:47:41;;;;;;;9.73;2.00;;;;;;;7.00;61.68;101739.69;4968869;28;20030;-84
2022/02/10 23:50:08;;;;;;;12.10;2.38;;;;;;;7.00;60.98;101744.91;4961458;28;20058;-85
2022/02/10 23:52:33;;;;;;;12.00;2.08;;;;;;;6.88;61.18;101740.06;4955705;28;20058;-84
2022/02/10 23:55:07;;;;;;;13.88;2.83;;;;;;;6.87;61.97;101743.56;4974011;28;20493;-85
2022/02/10 23:57:44;;;;;;;7.50;2.00;;;;;;;6.91;61.87;101746.06;4974981;28;20018;-84
